sensor_id;sensor_type;location;lat;lon;timestamp;temperature;humidity
8067;DHT22;4076;48.076;9.118;2023-05-14T00:00:40;8.60;99.90
8067;DHT22;4076;48.076;9.118;2023-05-14T00:03:05;8.60;99.90
8067;DHT22;4076;48.076;9.118;2023-05-14T00:05:31;8.60;99.90
8067;DHT22;4076;48.076;9.118;2023-05-14T00:07:57;8.60;99.90
8067;DHT22;4076;48.076;9.118;2023-05-14T00:10:22;8.60;99.90
8067;DHT22;4076;48.076;9.118;2023-05-14T00:12:49;8.70;99.90
8067;DHT22;4076;48.076;9.118;2023-05-14T00:15:14;8.70;99.90
8067;DHT22;4076;48.076;9.118;2023-05-14T00:17:40;8.80;99.90
8067;DHT22;4076;48.076;9.118;2023-05-14T00:20:07;8.80;99.90
8067;DHT22;4076;48.076;9.118;2023-05-14T00:22:33;8.80;99.90
8067;DHT22;4076;48.076;9.118;2023-05-14T00:24:58;8.90;99.90
8067;DHT22;4076;48.076;9.118;2023-05-14T00:27:24;8.90;99.90
8067;DHT22;4076;48.076;9.118;2023-05-14T00:29:50;8.90;99.90
8067;DHT22;4076;48.076;9.118;2023-05-14T00:32:15;9.00;99.90
8067;DHT22;4076;48.076;9.118;2023-05-14T00:34:41;9.00;99.90
8067;DHT22;4076;48.076;9.118;2023-05-14T00:37:06;9.10;99.90
8067;DHT22;4076;48.076;9.118;2023-05-14T00:39:32;9.10;99.90
8067;DHT22;4076;48.076;9.118;2023-05-14T00:41:58;9.10;99.90
8067;DHT22;4076;48.076;9.118;2023-05-14T00:44:23;9.10;99.90
8067;DHT22;4076;48.076;9.118;2023-05-14T00:46:49;9.20;99.90
8067;DHT22;4076;48.076;9.118;2023-05-14T00:49:15;9.20;99.90
8067;DHT22;4076;48.076;9.118;2023-05-14T00:51:40;9.20;99.90
8067;DHT22;4076;48.076;9.118;2023-05-14T00:54:07;9.20;99.90
8067;DHT22;4076;48.076;9.118;2023-05-14T00:56:33;9.30;99.90
8067;DHT22;4076;48.076;9.118;2023-05-14T00:59:00;9.30;99.90
8067;DHT22;4076;48.076;9.118;2023-05-14T01:01:26;9.30;99.90
8067;DHT22;4076;48.076;9.118;2023-05-14T01:03:53;9.40;99.90
8067;DHT22;4076;48.076;9.118;2023-05-14T01:06:56;9.40;99.90
8067;DHT22;4076;48.076;9.118;2023-05-14T01:09:54;9.40;99.90
8067;DHT22;4076;48.076;9.118;2023-05-14T01:15:20;9.50;99.90
8067;DHT22;4076;48.076;9.118;2023-05-14T01:17:58;9.50;99.90
8067;DHT22;4076;48.076;9.118;2023-05-14T01:20:25;9.50;99.90
8067;DHT22;4076;48.076;9.118;2023-05-14T01:22:50;9.50;99.90
8067;DHT22;4076;48.076;9.118;2023-05-14T01:25:16;9.50;99.90
8067;DHT22;4076;48.076;9.118;2023-05-14T01:28:00;9.50;99.90
8067;DHT22;4076;48.076;9.118;2023-05-14T01:30:37;9.60;99.90
8067;DHT22;4076;48.076;9.118;2023-05-14T01:33:12;9.60;99.90
8067;DHT22;4076;48.076;9.118;2023-05-14T01:35:38;9.60;99.90
8067;DHT22;4076;48.076;9.118;2023-05-14T01:38:06;9.50;99.90
8067;DHT22;4076;48.076;9.118;2023-05-14T01:40:34;9.60;99.90
8067;DHT22;4076;48.076;9.118;2023-05-14T01:43:01;9.60;99.90
8067;DHT22;4076;48.076;9.118;2023-05-14T01:45:26;9.60;99.90
8067;DHT22;4076;48.076;9.118;2023-05-14T01:47:52;9.60;99.90
8067;DHT22;4076;48.076;9.118;2023-05-14T01:50:18;9.60;99.90
8067;DHT22;4076;48.076;9.118;2023-05-14T01:52:44;9.60;99.90
8067;DHT22;4076;48.076;9.118;2023-05-14T01:55:09;9.60;99.90
8067;DHT22;4076;48.076;9.118;2023-05-14T01:57:35;9.60;99.90
8067;DHT22;4076;48.076;9.118;2023-05-14T02:00:01;9.60;99.90
8067;DHT22;4076;48.076;9.118;2023-05-14T02:02:26;9.60;99.90
8067;DHT22;4076;48.076;9.118;2023-05-14T02:04:52;9.70;99.90
8067;DHT22;4076;48.076;9.118;2023-05-14T02:07:17;9.70;99.90
8067;DHT22;4076;48.076;9.118;2023-05-14T02:09:43;9.70;99.90
8067;DHT22;4076;48.076;9.118;2023-05-14T02:12:09;9.80;99.90
8067;DHT22;4076;48.076;9.118;2023-05-14T02:14:35;9.80;99.90
8067;DHT22;4076;48.076;9.118;2023-05-14T02:17:01;9.80;99.90
8067;DHT22;4076;48.076;9.118;2023-05-14T02:19:28;9.80;99.90
8067;DHT22;4076;48.076;9.118;2023-05-14T02:21:53;9.80;99.90
8067;DHT22;4076;48.076;9.118;2023-05-14T02:24:19;9.80;99.90
8067;DHT22;4076;48.076;9.118;2023-05-14T02:26:45;9.80;99.90
8067;DHT22;4076;48.076;9.118;2023-05-14T02:29:10;9.90;99.90
8067;DHT22;4076;48.076;9.118;2023-05-14T02:31:36;9.90;99.90
8067;DHT22;4076;48.076;9.118;2023-05-14T02:34:01;9.90;99.90
8067;DHT22;4076;48.076;9.118;2023-05-14T02:36:27;9.90;99.90
8067;DHT22;4076;48.076;9.118;2023-05-14T02:38:52;9.90;99.90
8067;DHT22;4076;48.076;9.118;2023-05-14T02:41:18;9.90;99.90
8067;DHT22;4076;48.076;9.118;2023-05-14T02:43:44;9.90;99.90
8067;DHT22;4076;48.076;9.118;2023-05-14T02:46:10;9.90;99.90
8067;DHT22;4076;48.076;9.118;2023-05-14T02:48:35;9.90;99.90
8067;DHT22;4076;48.076;9.118;2023-05-14T02:51:01;10.00;99.90
8067;DHT22;4076;48.076;9.118;2023-05-14T02:53:27;9.90;99.90
8067;DHT22;4076;48.076;9.118;2023-05-14T02:55:52;10.00;99.90
8067;DHT22;4076;48.076;9.118;2023-05-14T02:58:18;10.00;99.90
8067;DHT22;4076;48.076;9.118;2023-05-14T03:00:43;10.00;99.90
8067;DHT22;4076;48.076;9.118;2023-05-14T03:03:09;10.00;99.90
8067;DHT22;4076;48.076;9.118;2023-05-14T03:05:34;10.00;99.90
8067;DHT22;4076;48.076;9.118;2023-05-14T03:08:00;10.00;99.90
8067;DHT22;4076;48.076;9.118;2023-05-14T03:10:25;10.00;99.90
8067;DHT22;4076;48.076;9.118;2023-05-14T03:12:51;10.00;99.90
8067;DHT22;4076;48.076;9.118;2023-05-14T03:15:17;10.00;99.90
8067;DHT22;4076;48.076;9.118;2023-05-14T03:17:42;10.00;99.90
8067;DHT22;4076;48.076;9.118;2023-05-14T03:20:08;9.90;99.90
8067;DHT22;4076;48.076;9.118;2023-05-14T03:22:35;10.00;99.90
8067;DHT22;4076;48.076;9.118;2023-05-14T03:25:00;10.00;99.90
8067;DHT22;4076;48.076;9.118;2023-05-14T03:27:26;10.00;99.90
8067;DHT22;4076;48.076;9.118;2023-05-14T03:29:51;10.00;99.90
8067;DHT22;4076;48.076;9.118;2023-05-14T03:32:17;10.00;99.90
8067;DHT22;4076;48.076;9.118;2023-05-14T03:34:43;10.10;99.90
8067;DHT22;4076;48.076;9.118;2023-05-14T03:37:09;10.10;99.90
8067;DHT22;4076;48.076;9.118;2023-05-14T03:39:35;10.10;99.90
8067;DHT22;4076;48.076;9.118;2023-05-14T03:42:01;10.10;99.90
8067;DHT22;4076;48.076;9.118;2023-05-14T03:44:26;10.10;99.90
8067;DHT22;4076;48.076;9.118;2023-05-14T03:46:52;10.10;99.90
8067;DHT22;4076;48.076;9.118;2023-05-14T03:49:18;10.10;99.90
8067;DHT22;4076;48.076;9.118;2023-05-14T03:51:43;10.10;99.90
8067;DHT22;4076;48.076;9.118;2023-05-14T03:54:09;10.10;99.90
8067;DHT22;4076;48.076;9.118;2023-05-14T03:56:35;10.10;99.90
8067;DHT22;4076;48.076;9.118;2023-05-14T03:59:01;10.10;99.90
8067;DHT22;4076;48.076;9.118;2023-05-14T04:01:26;10.10;99.90
8067;DHT22;4076;48.076;9.118;2023-05-14T04:03:52;10.10;99.90
8067;DHT22;4076;48.076;9.118;2023-05-14T04:06:17;10.20;99.90
8067;DHT22;4076;48.076;9.118;2023-05-14T04:08:43;10.20;99.90
8067;DHT22;4076;48.076;9.118;2023-05-14T04:11:08;10.20;99.90
8067;DHT22;4076;48.076;9.118;2023-05-14T04:13:34;10.30;99.90
8067;DHT22;4076;48.076;9.118;2023-05-14T04:16:00;10.30;99.90
8067;DHT22;4076;48.076;9.118;2023-05-14T04:18:25;10.30;99.90
8067;DHT22;4076;48.076;9.118;2023-05-14T04:20:51;10.30;99.90
8067;DHT22;4076;48.076;9.118;2023-05-14T04:23:16;10.40;99.90
8067;DHT22;4076;48.076;9.118;2023-05-14T04:25:42;10.30;99.90
8067;DHT22;4076;48.076;9.118;2023-05-14T04:28:07;10.40;99.90
8067;DHT22;4076;48.076;9.118;2023-05-14T04:30:33;10.40;99.90
8067;DHT22;4076;48.076;9.118;2023-05-14T04:32:58;10.40;99.90
8067;DHT22;4076;48.076;9.118;2023-05-14T04:35:24;10.40;99.90
8067;DHT22;4076;48.076;9.118;2023-05-14T04:37:49;10.40;99.90
8067;DHT22;4076;48.076;9.118;2023-05-14T04:40:15;10.50;99.90
8067;DHT22;4076;48.076;9.118;2023-05-14T04:42:43;10.50;99.90
8067;DHT22;4076;48.076;9.118;2023-05-14T04:45:09;10.50;99.90
8067;DHT22;4076;48.076;9.118;2023-05-14T04:47:35;10.50;99.90
8067;DHT22;4076;48.076;9.118;2023-05-14T04:50:01;10.60;99.90
8067;DHT22;4076;48.076;9.118;2023-05-14T04:52:27;10.60;99.90
8067;DHT22;4076;48.076;9.118;2023-05-14T04:54:52;10.60;99.90
8067;DHT22;4076;48.076;9.118;2023-05-14T04:57:18;10.70;99.90
8067;DHT22;4076;48.076;9.118;2023-05-14T04:59:43;10.70;99.90
8067;DHT22;4076;48.076;9.118;2023-05-14T05:02:09;10.70;99.90
8067;DHT22;4076;48.076;9.118;2023-05-14T05:04:35;10.70;99.90
8067;DHT22;4076;48.076;9.118;2023-05-14T05:07:00;10.70;99.90
8067;DHT22;4076;48.076;9.118;2023-05-14T05:09:26;10.80;99.90
8067;DHT22;4076;48.076;9.118;2023-05-14T05:11:51;10.80;99.90
8067;DHT22;4076;48.076;9.118;2023-05-14T05:14:17;10.90;99.90
8067;DHT22;4076;48.076;9.118;2023-05-14T05:16:42;10.90;99.90
8067;DHT22;4076;48.076;9.118;2023-05-14T05:19:09;11.00;99.90
8067;DHT22;4076;48.076;9.118;2023-05-14T05:21:34;11.00;99.90
8067;DHT22;4076;48.076;9.118;2023-05-14T05:24:00;11.00;99.90
8067;DHT22;4076;48.076;9.118;2023-05-14T05:26:26;11.00;99.90
8067;DHT22;4076;48.076;9.118;2023-05-14T05:28:52;11.10;99.90
8067;DHT22;4076;48.076;9.118;2023-05-14T05:31:18;11.10;99.90
8067;DHT22;4076;48.076;9.118;2023-05-14T05:33:43;11.10;99.90
8067;DHT22;4076;48.076;9.118;2023-05-14T05:36:09;11.10;99.90
8067;DHT22;4076;48.076;9.118;2023-05-14T05:38:34;11.20;99.90
8067;DHT22;4076;48.076;9.118;2023-05-14T05:41:00;11.20;99.90
8067;DHT22;4076;48.076;9.118;2023-05-14T05:43:25;11.20;99.90
8067;DHT22;4076;48.076;9.118;2023-05-14T05:45:52;11.20;99.90
8067;DHT22;4076;48.076;9.118;2023-05-14T05:48:18;11.30;99.90
8067;DHT22;4076;48.076;9.118;2023-05-14T05:50:46;11.30;99.90
8067;DHT22;4076;48.076;9.118;2023-05-14T05:53:13;11.30;99.90
8067;DHT22;4076;48.076;9.118;2023-05-14T05:55:40;11.40;99.90
8067;DHT22;4076;48.076;9.118;2023-05-14T05:58:06;11.40;99.90
8067;DHT22;4076;48.076;9.118;2023-05-14T06:00:32;11.50;99.90
8067;DHT22;4076;48.076;9.118;2023-05-14T06:02:57;11.50;99.90
8067;DHT22;4076;48.076;9.118;2023-05-14T06:05:23;11.50;99.90
8067;DHT22;4076;48.076;9.118;2023-05-14T06:07:48;11.60;99.90
8067;DHT22;4076;48.076;9.118;2023-05-14T06:10:14;11.60;99.90
8067;DHT22;4076;48.076;9.118;2023-05-14T06:12:39;11.60;99.90
8067;DHT22;4076;48.076;9.118;2023-05-14T06:15:05;11.60;99.90
8067;DHT22;4076;48.076;9.118;2023-05-14T06:17:31;11.60;99.90
8067;DHT22;4076;48.076;9.118;2023-05-14T06:19:57;11.60;99.90
8067;DHT22;4076;48.076;9.118;2023-05-14T06:22:22;11.50;99.90
8067;DHT22;4076;48.076;9.118;2023-05-14T06:24:48;11.60;99.90
8067;DHT22;4076;48.076;9.118;2023-05-14T06:27:13;11.60;99.90
8067;DHT22;4076;48.076;9.118;2023-05-14T06:29:39;11.60;99.90
8067;DHT22;4076;48.076;9.118;2023-05-14T06:32:05;11.60;99.90
8067;DHT22;4076;48.076;9.118;2023-05-14T06:34:30;11.60;99.90
8067;DHT22;4076;48.076;9.118;2023-05-14T06:36:56;11.50;99.90
8067;DHT22;4076;48.076;9.118;2023-05-14T06:39:22;11.50;99.90
8067;DHT22;4076;48.076;9.118;2023-05-14T06:41:48;11.50;99.90
8067;DHT22;4076;48.076;9.118;2023-05-14T06:44:15;11.60;99.90
8067;DHT22;4076;48.076;9.118;2023-05-14T06:46:41;11.60;99.90
8067;DHT22;4076;48.076;9.118;2023-05-14T06:49:07;11.70;99.90
8067;DHT22;4076;48.076;9.118;2023-05-14T06:51:32;11.70;99.90
8067;DHT22;4076;48.076;9.118;2023-05-14T06:53:57;11.80;99.90
8067;DHT22;4076;48.076;9.118;2023-05-14T06:56:23;11.90;99.90
8067;DHT22;4076;48.076;9.118;2023-05-14T06:58:48;12.00;99.90
8067;DHT22;4076;48.076;9.118;2023-05-14T07:01:15;12.20;99.90
8067;DHT22;4076;48.076;9.118;2023-05-14T07:03:41;12.40;99.90
8067;DHT22;4076;48.076;9.118;2023-05-14T07:06:06;12.60;99.90
8067;DHT22;4076;48.076;9.118;2023-05-14T07:08:32;12.80;99.90
8067;DHT22;4076;48.076;9.118;2023-05-14T07:10:57;13.00;99.90
8067;DHT22;4076;48.076;9.118;2023-05-14T07:13:24;13.00;99.90
8067;DHT22;4076;48.076;9.118;2023-05-14T07:15:51;13.10;99.90
8067;DHT22;4076;48.076;9.118;2023-05-14T07:18:17;13.20;99.90
8067;DHT22;4076;48.076;9.118;2023-05-14T07:20:42;13.30;99.90
8067;DHT22;4076;48.076;9.118;2023-05-14T07:23:08;13.40;99.90
8067;DHT22;4076;48.076;9.118;2023-05-14T07:25:33;13.50;99.90
8067;DHT22;4076;48.076;9.118;2023-05-14T07:27:59;13.50;99.90
8067;DHT22;4076;48.076;9.118;2023-05-14T07:30:24;13.60;99.90
8067;DHT22;4076;48.076;9.118;2023-05-14T07:32:50;13.50;99.90
8067;DHT22;4076;48.076;9.118;2023-05-14T07:35:16;13.30;99.90
8067;DHT22;4076;48.076;9.118;2023-05-14T07:37:41;13.30;99.90
8067;DHT22;4076;48.076;9.118;2023-05-14T07:40:07;13.20;99.90
8067;DHT22;4076;48.076;9.118;2023-05-14T07:42:33;13.10;99.90
8067;DHT22;4076;48.076;9.118;2023-05-14T07:44:59;13.00;99.90
8067;DHT22;4076;48.076;9.118;2023-05-14T07:47:24;12.90;99.90
8067;DHT22;4076;48.076;9.118;2023-05-14T07:49:53;12.80;99.90
8067;DHT22;4076;48.076;9.118;2023-05-14T07:52:19;12.80;99.90
8067;DHT22;4076;48.076;9.118;2023-05-14T07:54:45;12.80;99.90
8067;DHT22;4076;48.076;9.118;2023-05-14T07:57:10;12.70;99.90
8067;DHT22;4076;48.076;9.118;2023-05-14T07:59:36;12.70;99.90
8067;DHT22;4076;48.076;9.118;2023-05-14T08:02:01;12.70;99.90
8067;DHT22;4076;48.076;9.118;2023-05-14T08:04:27;12.70;99.90
8067;DHT22;4076;48.076;9.118;2023-05-14T08:06:52;12.70;99.90
8067;DHT22;4076;48.076;9.118;2023-05-14T08:09:18;12.70;99.90
8067;DHT22;4076;48.076;9.118;2023-05-14T08:11:43;12.70;99.90
8067;DHT22;4076;48.076;9.118;2023-05-14T08:14:09;12.60;99.90
8067;DHT22;4076;48.076;9.118;2023-05-14T08:16:34;12.50;99.90
8067;DHT22;4076;48.076;9.118;2023-05-14T08:19:00;12.50;99.90
8067;DHT22;4076;48.076;9.118;2023-05-14T08:21:26;12.40;99.90
8067;DHT22;4076;48.076;9.118;2023-05-14T08:23:52;12.40;99.90
8067;DHT22;4076;48.076;9.118;2023-05-14T08:26:17;12.40;99.90
8067;DHT22;4076;48.076;9.118;2023-05-14T08:28:43;12.40;99.90
8067;DHT22;4076;48.076;9.118;2023-05-14T08:31:08;12.40;99.90
8067;DHT22;4076;48.076;9.118;2023-05-14T08:33:34;12.40;99.90
8067;DHT22;4076;48.076;9.118;2023-05-14T08:35:59;12.40;99.90
8067;DHT22;4076;48.076;9.118;2023-05-14T08:38:25;12.40;99.90
8067;DHT22;4076;48.076;9.118;2023-05-14T08:40:58;12.30;99.90
8067;DHT22;4076;48.076;9.118;2023-05-14T08:43:36;12.30;99.90
8067;DHT22;4076;48.076;9.118;2023-05-14T08:46:04;12.20;99.90
8067;DHT22;4076;48.076;9.118;2023-05-14T08:48:32;12.20;99.90
8067;DHT22;4076;48.076;9.118;2023-05-14T08:51:00;12.20;99.90
8067;DHT22;4076;48.076;9.118;2023-05-14T08:53:26;12.30;99.90
8067;DHT22;4076;48.076;9.118;2023-05-14T08:55:52;12.40;99.90
8067;DHT22;4076;48.076;9.118;2023-05-14T08:58:18;12.50;99.90
8067;DHT22;4076;48.076;9.118;2023-05-14T09:00:44;12.50;99.90
8067;DHT22;4076;48.076;9.118;2023-05-14T09:03:11;12.50;99.90
8067;DHT22;4076;48.076;9.118;2023-05-14T09:05:36;12.60;99.90
8067;DHT22;4076;48.076;9.118;2023-05-14T09:08:02;12.70;99.90
8067;DHT22;4076;48.076;9.118;2023-05-14T09:10:28;12.80;99.90
8067;DHT22;4076;48.076;9.118;2023-05-14T09:12:53;12.80;99.90
8067;DHT22;4076;48.076;9.118;2023-05-14T09:15:19;12.90;99.90
8067;DHT22;4076;48.076;9.118;2023-05-14T09:17:45;13.10;99.90
8067;DHT22;4076;48.076;9.118;2023-05-14T09:20:13;13.20;99.90
8067;DHT22;4076;48.076;9.118;2023-05-14T09:22:39;13.20;99.90
8067;DHT22;4076;48.076;9.118;2023-05-14T09:25:07;13.20;99.90
8067;DHT22;4076;48.076;9.118;2023-05-14T09:27:34;13.20;99.90
8067;DHT22;4076;48.076;9.118;2023-05-14T09:30:05;13.20;99.90
8067;DHT22;4076;48.076;9.118;2023-05-14T09:32:41;13.20;99.90
8067;DHT22;4076;48.076;9.118;2023-05-14T09:35:18;13.30;99.90
8067;DHT22;4076;48.076;9.118;2023-05-14T09:37:49;13.40;99.90
8067;DHT22;4076;48.076;9.118;2023-05-14T09:40:17;13.50;99.90
8067;DHT22;4076;48.076;9.118;2023-05-14T09:42:43;13.60;99.90
8067;DHT22;4076;48.076;9.118;2023-05-14T09:45:09;13.70;99.90
8067;DHT22;4076;48.076;9.118;2023-05-14T09:47:38;13.90;99.90
8067;DHT22;4076;48.076;9.118;2023-05-14T09:50:05;13.80;99.90
8067;DHT22;4076;48.076;9.118;2023-05-14T09:52:31;13.90;99.90
8067;DHT22;4076;48.076;9.118;2023-05-14T09:54:59;14.00;99.90
8067;DHT22;4076;48.076;9.118;2023-05-14T09:57:25;14.00;99.90
8067;DHT22;4076;48.076;9.118;2023-05-14T09:59:51;14.00;99.90
8067;DHT22;4076;48.076;9.118;2023-05-14T10:02:25;14.00;99.90
8067;DHT22;4076;48.076;9.118;2023-05-14T10:04:58;14.10;99.90
8067;DHT22;4076;48.076;9.118;2023-05-14T10:07:47;14.10;99.90
8067;DHT22;4076;48.076;9.118;2023-05-14T10:10:15;14.30;99.90
8067;DHT22;4076;48.076;9.118;2023-05-14T10:12:48;14.70;99.90
8067;DHT22;4076;48.076;9.118;2023-05-14T10:15:22;15.50;99.90
8067;DHT22;4076;48.076;9.118;2023-05-14T10:17:55;16.60;99.90
8067;DHT22;4076;48.076;9.118;2023-05-14T10:20:21;17.50;99.90
8067;DHT22;4076;48.076;9.118;2023-05-14T10:22:47;17.50;99.90
8067;DHT22;4076;48.076;9.118;2023-05-14T10:25:13;17.30;98.00
8067;DHT22;4076;48.076;9.118;2023-05-14T10:27:39;16.70;97.50
8067;DHT22;4076;48.076;9.118;2023-05-14T10:30:10;16.10;97.80
8067;DHT22;4076;48.076;9.118;2023-05-14T10:32:37;15.60;98.30
8067;DHT22;4076;48.076;9.118;2023-05-14T10:35:17;15.20;99.70
8067;DHT22;4076;48.076;9.118;2023-05-14T10:37:45;15.10;99.90
8067;DHT22;4076;48.076;9.118;2023-05-14T10:40:12;15.20;99.90
8067;DHT22;4076;48.076;9.118;2023-05-14T10:42:38;15.60;99.90
8067;DHT22;4076;48.076;9.118;2023-05-14T10:45:09;16.00;99.90
8067;DHT22;4076;48.076;9.118;2023-05-14T10:47:37;16.30;99.90
8067;DHT22;4076;48.076;9.118;2023-05-14T10:50:05;16.80;99.90
8067;DHT22;4076;48.076;9.118;2023-05-14T10:52:32;17.40;99.90
8067;DHT22;4076;48.076;9.118;2023-05-14T10:54:59;17.90;97.60
8067;DHT22;4076;48.076;9.118;2023-05-14T10:57:27;18.20;93.90
8067;DHT22;4076;48.076;9.118;2023-05-14T10:59:54;18.30;92.70
8067;DHT22;4076;48.076;9.118;2023-05-14T11:05:15;17.90;85.90
8067;DHT22;4076;48.076;9.118;2023-05-14T11:07:46;17.50;79.90
8067;DHT22;4076;48.076;9.118;2023-05-14T11:12:42;16.70;82.80
8067;DHT22;4076;48.076;9.118;2023-05-14T11:15:10;16.60;85.60
8067;DHT22;4076;48.076;9.118;2023-05-14T11:17:37;16.60;86.30
8067;DHT22;4076;48.076;9.118;2023-05-14T11:20:03;16.70;88.10
8067;DHT22;4076;48.076;9.118;2023-05-14T11:22:32;16.70;85.10
8067;DHT22;4076;48.076;9.118;2023-05-14T11:24:58;16.70;83.80
8067;DHT22;4076;48.076;9.118;2023-05-14T11:27:23;16.70;84.90
8067;DHT22;4076;48.076;9.118;2023-05-14T11:29:50;17.00;82.30
8067;DHT22;4076;48.076;9.118;2023-05-14T11:32:17;16.90;81.30
8067;DHT22;4076;48.076;9.118;2023-05-14T11:34:43;16.80;80.00
8067;DHT22;4076;48.076;9.118;2023-05-14T11:37:09;16.70;79.20
8067;DHT22;4076;48.076;9.118;2023-05-14T11:39:37;16.70;80.50
8067;DHT22;4076;48.076;9.118;2023-05-14T11:42:04;16.80;80.70
8067;DHT22;4076;48.076;9.118;2023-05-14T11:44:30;16.80;80.10
8067;DHT22;4076;48.076;9.118;2023-05-14T11:46:57;17.10;81.50
8067;DHT22;4076;48.076;9.118;2023-05-14T11:49:24;17.40;79.80
8067;DHT22;4076;48.076;9.118;2023-05-14T11:51:57;17.70;80.90
8067;DHT22;4076;48.076;9.118;2023-05-14T11:54:25;18.00;78.60
8067;DHT22;4076;48.076;9.118;2023-05-14T11:56:51;18.10;75.60
8067;DHT22;4076;48.076;9.118;2023-05-14T11:59:17;18.20;74.60
8067;DHT22;4076;48.076;9.118;2023-05-14T12:01:44;18.10;74.80
8067;DHT22;4076;48.076;9.118;2023-05-14T12:04:12;17.90;72.80
8067;DHT22;4076;48.076;9.118;2023-05-14T12:06:38;17.70;71.50
8067;DHT22;4076;48.076;9.118;2023-05-14T12:09:04;17.60;70.70
8067;DHT22;4076;48.076;9.118;2023-05-14T12:11:30;17.50;72.10
8067;DHT22;4076;48.076;9.118;2023-05-14T12:13:57;17.60;73.10
8067;DHT22;4076;48.076;9.118;2023-05-14T12:16:31;17.80;73.40
8067;DHT22;4076;48.076;9.118;2023-05-14T12:19:00;18.00;73.50
8067;DHT22;4076;48.076;9.118;2023-05-14T12:21:27;18.20;73.60
8067;DHT22;4076;48.076;9.118;2023-05-14T12:23:59;18.20;72.90
8067;DHT22;4076;48.076;9.118;2023-05-14T12:26:25;18.20;72.40
8067;DHT22;4076;48.076;9.118;2023-05-14T12:28:58;18.10;70.00
8067;DHT22;4076;48.076;9.118;2023-05-14T12:31:28;18.00;68.70
8067;DHT22;4076;48.076;9.118;2023-05-14T12:33:54;18.00;68.90
8067;DHT22;4076;48.076;9.118;2023-05-14T12:36:19;18.10;70.00
8067;DHT22;4076;48.076;9.118;2023-05-14T12:38:45;18.10;68.40
8067;DHT22;4076;48.076;9.118;2023-05-14T12:41:10;18.20;68.50
8067;DHT22;4076;48.076;9.118;2023-05-14T12:43:36;18.30;67.50
8067;DHT22;4076;48.076;9.118;2023-05-14T12:46:01;18.20;68.40
8067;DHT22;4076;48.076;9.118;2023-05-14T12:48:27;18.30;69.30
8067;DHT22;4076;48.076;9.118;2023-05-14T12:50:52;18.30;70.00
8067;DHT22;4076;48.076;9.118;2023-05-14T12:53:18;18.40;69.70
8067;DHT22;4076;48.076;9.118;2023-05-14T12:55:43;18.40;66.60
8067;DHT22;4076;48.076;9.118;2023-05-14T12:58:09;18.30;65.40
8067;DHT22;4076;48.076;9.118;2023-05-14T13:00:35;18.20;66.00
8067;DHT22;4076;48.076;9.118;2023-05-14T13:03:00;17.90;67.70
8067;DHT22;4076;48.076;9.118;2023-05-14T13:05:26;17.60;68.60
8067;DHT22;4076;48.076;9.118;2023-05-14T13:07:52;17.30;68.50
8067;DHT22;4076;48.076;9.118;2023-05-14T13:10:18;16.90;69.40
8067;DHT22;4076;48.076;9.118;2023-05-14T13:12:43;16.60;73.30
8067;DHT22;4076;48.076;9.118;2023-05-14T13:15:09;16.40;72.00
8067;DHT22;4076;48.076;9.118;2023-05-14T13:17:38;16.30;71.50
8067;DHT22;4076;48.076;9.118;2023-05-14T13:20:06;16.20;72.80
8067;DHT22;4076;48.076;9.118;2023-05-14T13:22:32;16.00;74.00
8067;DHT22;4076;48.076;9.118;2023-05-14T13:24:58;15.90;76.90
8067;DHT22;4076;48.076;9.118;2023-05-14T13:27:23;15.90;79.80
8067;DHT22;4076;48.076;9.118;2023-05-14T13:29:49;15.70;82.80
8067;DHT22;4076;48.076;9.118;2023-05-14T13:32:14;15.60;82.90
8067;DHT22;4076;48.076;9.118;2023-05-14T13:34:40;15.60;85.90
8067;DHT22;4076;48.076;9.118;2023-05-14T13:37:05;15.60;87.80
8067;DHT22;4076;48.076;9.118;2023-05-14T13:39:31;15.60;89.30
8067;DHT22;4076;48.076;9.118;2023-05-14T13:41:57;15.70;91.30
8067;DHT22;4076;48.076;9.118;2023-05-14T13:44:23;15.80;92.10
8067;DHT22;4076;48.076;9.118;2023-05-14T13:46:49;16.00;93.30
8067;DHT22;4076;48.076;9.118;2023-05-14T13:49:14;16.20;92.80
8067;DHT22;4076;48.076;9.118;2023-05-14T13:51:40;16.30;92.80
8067;DHT22;4076;48.076;9.118;2023-05-14T13:54:06;16.30;92.80
8067;DHT22;4076;48.076;9.118;2023-05-14T13:56:32;16.50;93.80
8067;DHT22;4076;48.076;9.118;2023-05-14T13:58:57;16.50;93.30
8067;DHT22;4076;48.076;9.118;2023-05-14T14:01:23;16.60;93.80
8067;DHT22;4076;48.076;9.118;2023-05-14T14:03:48;16.60;93.70
8067;DHT22;4076;48.076;9.118;2023-05-14T14:06:14;16.50;92.50
8067;DHT22;4076;48.076;9.118;2023-05-14T14:08:39;16.40;93.20
8067;DHT22;4076;48.076;9.118;2023-05-14T14:11:05;16.40;93.90
8067;DHT22;4076;48.076;9.118;2023-05-14T14:13:30;16.40;93.50
8067;DHT22;4076;48.076;9.118;2023-05-14T14:15:56;16.40;93.00
8067;DHT22;4076;48.076;9.118;2023-05-14T14:18:22;16.40;92.50
8067;DHT22;4076;48.076;9.118;2023-05-14T14:20:47;16.40;91.90
8067;DHT22;4076;48.076;9.118;2023-05-14T14:23:13;16.40;91.90
8067;DHT22;4076;48.076;9.118;2023-05-14T14:25:38;16.40;91.70
8067;DHT22;4076;48.076;9.118;2023-05-14T14:28:04;16.40;91.60
8067;DHT22;4076;48.076;9.118;2023-05-14T14:30:29;16.50;91.40
8067;DHT22;4076;48.076;9.118;2023-05-14T14:32:56;16.50;91.40
8067;DHT22;4076;48.076;9.118;2023-05-14T14:35:22;16.50;90.50
8067;DHT22;4076;48.076;9.118;2023-05-14T14:37:47;16.50;90.20
8067;DHT22;4076;48.076;9.118;2023-05-14T14:40:14;16.50;90.10
8067;DHT22;4076;48.076;9.118;2023-05-14T14:42:41;16.50;88.00
8067;DHT22;4076;48.076;9.118;2023-05-14T14:45:07;16.60;88.70
8067;DHT22;4076;48.076;9.118;2023-05-14T14:47:33;16.60;87.50
8067;DHT22;4076;48.076;9.118;2023-05-14T14:49:59;16.60;87.90
8067;DHT22;4076;48.076;9.118;2023-05-14T14:52:25;16.60;87.30
8067;DHT22;4076;48.076;9.118;2023-05-14T14:54:51;16.70;85.70
8067;DHT22;4076;48.076;9.118;2023-05-14T14:57:17;16.70;87.70
8067;DHT22;4076;48.076;9.118;2023-05-14T14:59:43;16.70;80.40
8067;DHT22;4076;48.076;9.118;2023-05-14T15:02:09;16.60;80.20
8067;DHT22;4076;48.076;9.118;2023-05-14T15:04:35;16.50;81.30
8067;DHT22;4076;48.076;9.118;2023-05-14T15:07:01;16.40;82.00
8067;DHT22;4076;48.076;9.118;2023-05-14T15:09:26;16.50;82.40
8067;DHT22;4076;48.076;9.118;2023-05-14T15:11:52;16.40;81.90
8067;DHT22;4076;48.076;9.118;2023-05-14T15:14:20;16.40;81.20
8067;DHT22;4076;48.076;9.118;2023-05-14T15:16:45;16.20;81.60
8067;DHT22;4076;48.076;9.118;2023-05-14T15:19:11;16.10;79.60
8067;DHT22;4076;48.076;9.118;2023-05-14T15:21:37;15.90;80.60
8067;DHT22;4076;48.076;9.118;2023-05-14T15:24:03;15.70;81.80
8067;DHT22;4076;48.076;9.118;2023-05-14T15:26:29;15.60;82.00
8067;DHT22;4076;48.076;9.118;2023-05-14T15:28:55;15.40;82.20
8067;DHT22;4076;48.076;9.118;2023-05-14T15:31:20;15.30;80.20
8067;DHT22;4076;48.076;9.118;2023-05-14T15:33:46;15.10;80.10
8067;DHT22;4076;48.076;9.118;2023-05-14T15:36:11;15.00;81.70
8067;DHT22;4076;48.076;9.118;2023-05-14T15:38:37;14.90;83.40
8067;DHT22;4076;48.076;9.118;2023-05-14T15:41:02;14.80;83.00
8067;DHT22;4076;48.076;9.118;2023-05-14T15:43:28;14.80;84.10
8067;DHT22;4076;48.076;9.118;2023-05-14T15:45:53;14.60;84.70
8067;DHT22;4076;48.076;9.118;2023-05-14T15:48:19;14.60;84.50
8067;DHT22;4076;48.076;9.118;2023-05-14T15:50:47;14.50;86.20
8067;DHT22;4076;48.076;9.118;2023-05-14T15:53:12;14.40;85.40
8067;DHT22;4076;48.076;9.118;2023-05-14T15:55:38;14.40;84.50
8067;DHT22;4076;48.076;9.118;2023-05-14T15:58:03;14.30;85.60
8067;DHT22;4076;48.076;9.118;2023-05-14T16:00:29;14.20;87.80
8067;DHT22;4076;48.076;9.118;2023-05-14T16:02:54;14.10;86.80
8067;DHT22;4076;48.076;9.118;2023-05-14T16:05:20;14.10;87.40
8067;DHT22;4076;48.076;9.118;2023-05-14T16:07:46;14.00;86.50